• Join FlightAware (Why Join?)
  • Login
  • US Flag 
01:13AM EST


 

Airport Tracker/Info


-or-


 

Live Flight TrackerFlight Track Log ✈ JBU285 ✈ 23-Apr-2013 ✈ KLAS - KLGB

Flight Track Log - Related Links

Times and Time Zones

All times are in EDT time to prevent confusion due to time zone crossing. See the JBU285 flight status page for this flight to view local times or setup timezone preferences in your user account.

Time Position Orientation Groundspeed Altitude Reporting Facility
EDT Latitude Longitude Course Direction KTS MPH feet Rate Location/Type
09:36PM 36.0769 -115.1119 228° Southwest 166 191 3,400  Level Los Angeles Center
09:37PM 36.0761 -114.9900 90° East 259 298 6,300 2,160 Climbing Los Angeles Center
09:38PM 36.0378 -114.9333 130° Southeast 296 341 8,700 2,820 Climbing Los Angeles Center
09:39PM 35.8179 -115.3481 161° South  Level FlightAware Approximate
09:39PM 36.0072 -114.9358 184° South 291 335 9,700  Level Los Angeles Center
09:39PM 35.9672 -114.9756 219° Southwest 293 337 11,800 3,000 Climbing Los Angeles Center
09:40PM 35.7198 -115.3061 161° South  Level FlightAware Approximate
09:40PM 35.9447 -115.0006 222° Southwest 296 341 12,800  Level Los Angeles Center
09:41PM 35.6416 -115.3282 228° Southwest  Level FlightAware Approximate
09:41PM 35.8806 -115.0706 221° Southwest 303 349 15,600  Level Los Angeles Center
09:42PM 35.8114 -115.1483 222° Southwest 327 376 17,000 1,320 Climbing Los Angeles Center
09:43PM 35.7119 -115.2567 222° Southwest 380 437 18,600 1,740 Climbing Los Angeles Center
09:44PM 35.6278 -115.3544 223° Southwest 397 457 20,600 1,920 Climbing Los Angeles Center
09:45PM 35.5506 -115.4653 229° Southwest 412 474 22,600 1,620 Climbing Los Angeles Center
09:46PM 35.4714 -115.5739 228° Southwest 423 487 24,000 660 Climbing Los Angeles Center
09:47PM 35.3931 -115.6789 228° Southwest 423 487 24,000  Level Los Angeles Center
09:48PM 35.2961 -115.8061 227° Southwest 424 488 24,000  Level Los Angeles Center
09:49PM 35.2161 -115.9136 228° Southwest 426 490 24,000  Level Los Angeles Center
09:50PM 35.1358 -116.0192 227° Southwest 424 488 24,000  Level Los Angeles Center
09:51PM 35.0544 -116.1233 226° Southwest 424 488 24,000  Level Los Angeles Center
09:52PM 34.9750 -116.2286 227° Southwest 424 488 24,000  Level Los Angeles Center
09:53PM 34.8947 -116.3350 227° Southwest 425 489 24,000  Level Los Angeles Center
09:54PM 34.8139 -116.4394 227° Southwest 424 488 24,000 -300 Level Los Angeles Center
09:55PM 34.7328 -116.5422 226° Southwest 422 486 23,500 -900 Descending Los Angeles Center
09:56PM 34.6417 -116.6528 225° Southwest 382 440 22,200 -1,440 Descending Los Angeles Center
09:57PM 34.5708 -116.7389 225° Southwest 363 418 20,600 -1,620 Descending Los Angeles Center
09:58PM 34.5017 -116.8233 225° Southwest 353 406 18,900 -1,740 Descending Los Angeles Center
09:59PM 34.4281 -116.9139 225° Southwest 374 430 17,100 -1,920 Descending Los Angeles Center
10:00PM 34.3464 -117.0128 225° Southwest 408 470 15,000 -2,040 Descending Los Angeles Center
10:01PM 34.2625 -117.1022 221° Southwest 407 468 12,900 -1,200 Descending Los Angeles Center
10:02PM 34.1658 -117.1136 186° South 350 403 12,600 -660 Descending Los Angeles Center
10:03PM 34.1000 -117.1167 182° South 305 351 11,800 -1,020 Descending Southern California TRACON
10:04PM 34.0167 -117.1333 189° South 299 344 11,000 -660 Descending Southern California TRACON
10:05PM 33.9333 -117.1667 198° South 293 337 10,500 -1,020 Descending Southern California TRACON
10:06PM 33.8667 -117.2167 212° Southwest 290 334 9,000 -1,380 Descending Southern California TRACON
10:07PM 33.8650 -117.2461 266° West 295 339 8,500 -720 Descending Los Angeles Center
10:08PM 33.8419 -117.3378 253° West 288 331 8,000 -300 Descending Los Angeles Center
10:09PM 33.8186 -117.4314 253° West 292 336 8,000  Level Los Angeles Center
10:10PM 33.7964 -117.5258 254° West 293 337 8,000 -60 Level Los Angeles Center
10:11PM 33.7697 -117.6394 254° West 294 338 7,900 -600 Descending Los Angeles Center
10:11PM 33.7500 -117.7000 249° West 290 334 7,100 -2,040 Descending Southern California TRACON
10:12PM 33.7333 -117.7833 256° West 275 316 4,800 -1,800 Descending Southern California TRACON
10:13PM 33.7000 -117.8667 244° Southwest 243 280 3,500 -900 Descending Southern California TRACON
10:14PM 33.6833 -117.9333 253° West 225 259 3,000 -660 Descending Southern California TRACON
10:15PM 33.7000 -118.0000 287° West 229 264 2,300 -480 Descending Southern California TRACON
10:16PM 33.7333 -118.0500 309° West 204 235 2,100 -600 Descending Southern California TRACON
10:17PM 33.7667 -118.1000 309° West 149 171 1,200 -900 Descending Southern California TRACON
10:18PM 33.8000 -118.1333 320° Northwest 128 147 400 -840 Descending Southern California TRACON
10:21PM 33.8167 -118.1500 292° West  Level FlightAware Approximate